DICKE EDDH-EDXW
Flight info
| Callsign | DICKE |
|---|---|
| Flight time | 0h 35m |
| Altitude | 2500 |
| Route | DCT |
| Aircraft | B18T/L-SBGRW/S |
Departure
| Time | 2026-05-08 18:23 |
|---|---|
| Airport | Hamburg Helmut Schmidt Airport (EDDH) |
Arrival
| Time | 2026-05-08 18:58 |
|---|---|
| Airport | Westerland Sylt Airport (EDXW) |
| Time | Latitude | Longitude | Altitude | Speed | Heading |
|---|---|---|---|---|---|
| 2026-05-08 17:57 | 53.62630 | 9.98891 | 42 ft | 0 kts | 242° |
| 2026-05-08 18:11 | 53.62638 | 9.98887 | 42 ft | 9 kts | 52° |
| 2026-05-08 18:11 | 53.62747 | 9.98842 | 42 ft | 27 kts | 330° |
| 2026-05-08 18:12 | 53.62770 | 9.98710 | 42 ft | 16 kts | 227° |
| 2026-05-08 18:12 | 53.62692 | 9.98559 | 42 ft | 18 kts | 230° |
| 2026-05-08 18:12 | 53.62727 | 9.98462 | 41 ft | 12 kts | 8° |
| 2026-05-08 18:12 | 53.62732 | 9.98463 | 41 ft | 0 kts | 9° |
| 2026-05-08 18:20 | 53.62773 | 9.98481 | 40 ft | 16 kts | 15° |
| 2026-05-08 18:21 | 53.62860 | 9.98471 | 39 ft | 3 kts | 50° |
| 2026-05-08 18:21 | 53.62862 | 9.98475 | 39 ft | 0 kts | 53° |
| 2026-05-08 18:21 | 53.62872 | 9.98496 | 40 ft | 15 kts | 51° |
| 2026-05-08 18:22 | 53.63073 | 9.98899 | 42 ft | 74 kts | 52° |
| 2026-05-08 18:22 | 53.63528 | 9.99532 | 260 ft | 95 kts | 15° |
| 2026-05-08 18:22 | 53.64101 | 9.98856 | 464 ft | 128 kts | 296° |
| 2026-05-08 18:22 | 53.64391 | 9.97318 | 516 ft | 138 kts | 290° |
| 2026-05-08 18:23 | 53.64679 | 9.95835 | 553 ft | 127 kts | 296° |
| 2026-05-08 18:23 | 53.64975 | 9.94391 | 500 ft | 135 kts | 293° |
| 2026-05-08 18:23 | 53.65195 | 9.92803 | 412 ft | 140 kts | 284° |
| 2026-05-08 18:23 | 53.65334 | 9.91271 | 675 ft | 125 kts | 282° |
| 2026-05-08 18:24 | 53.65469 | 9.89840 | 937 ft | 126 kts | 282° |
| 2026-05-08 18:24 | 53.65620 | 9.88355 | 1210 ft | 132 kts | 282° |
| 2026-05-08 18:24 | 53.65787 | 9.86742 | 1489 ft | 149 kts | 282° |
| 2026-05-08 18:24 | 53.65989 | 9.84935 | 1783 ft | 159 kts | 282° |
| 2026-05-08 18:25 | 53.66203 | 9.83033 | 1939 ft | 174 kts | 282° |
| 2026-05-08 18:25 | 53.66519 | 9.81037 | 1955 ft | 182 kts | 295° |
| 2026-05-08 18:25 | 53.67138 | 9.79155 | 1980 ft | 185 kts | 313° |
| 2026-05-08 18:25 | 53.68190 | 9.77961 | 1985 ft | 182 kts | 343° |
| 2026-05-08 18:26 | 53.69323 | 9.76972 | 1990 ft | 186 kts | 331° |
| 2026-05-08 18:26 | 53.70420 | 9.75780 | 1994 ft | 188 kts | 330° |
| 2026-05-08 18:26 | 53.71484 | 9.74477 | 2004 ft | 190 kts | 326° |
| 2026-05-08 18:26 | 53.72531 | 9.73115 | 2000 ft | 190 kts | 325° |
| 2026-05-08 18:27 | 53.73587 | 9.71775 | 1992 ft | 189 kts | 329° |
| 2026-05-08 18:27 | 53.74333 | 9.70973 | 1999 ft | 188 kts | 331° |
| 2026-05-08 18:27 | 53.75805 | 9.69406 | 2000 ft | 189 kts | 331° |
| 2026-05-08 18:27 | 53.76920 | 9.68224 | 1999 ft | 189 kts | 331° |
| 2026-05-08 18:28 | 53.78038 | 9.67038 | 2005 ft | 190 kts | 331° |
| 2026-05-08 18:28 | 53.79157 | 9.65852 | 2009 ft | 190 kts | 331° |
| 2026-05-08 18:28 | 53.80276 | 9.64674 | 2016 ft | 189 kts | 332° |
| 2026-05-08 18:28 | 53.81395 | 9.63497 | 2024 ft | 189 kts | 332° |
| 2026-05-08 18:29 | 53.82504 | 9.62339 | 2028 ft | 190 kts | 332° |
| 2026-05-08 18:29 | 53.83630 | 9.61172 | 2030 ft | 190 kts | 332° |
| 2026-05-08 18:29 | 53.84757 | 9.60006 | 2028 ft | 190 kts | 332° |
| 2026-05-08 18:29 | 53.85886 | 9.58841 | 2021 ft | 190 kts | 332° |
| 2026-05-08 18:30 | 53.87016 | 9.57680 | 2030 ft | 190 kts | 332° |
| 2026-05-08 18:30 | 53.88149 | 9.56517 | 2045 ft | 190 kts | 333° |
| 2026-05-08 18:30 | 53.89285 | 9.55355 | 2033 ft | 190 kts | 333° |
| 2026-05-08 18:30 | 53.90396 | 9.54143 | 2013 ft | 191 kts | 323° |
| 2026-05-08 18:31 | 53.91360 | 9.52597 | 2006 ft | 191 kts | 318° |
| 2026-05-08 18:31 | 53.92291 | 9.50977 | 2005 ft | 191 kts | 317° |
| 2026-05-08 18:31 | 53.93210 | 9.49335 | 2006 ft | 192 kts | 316° |
| 2026-05-08 18:31 | 53.94123 | 9.47688 | 2001 ft | 192 kts | 316° |
| 2026-05-08 18:32 | 53.95033 | 9.46037 | 1997 ft | 191 kts | 316° |
| 2026-05-08 18:32 | 53.95940 | 9.44379 | 2000 ft | 191 kts | 316° |
| 2026-05-08 18:32 | 53.96834 | 9.42747 | 1998 ft | 191 kts | 316° |
| 2026-05-08 18:32 | 53.97741 | 9.41092 | 2009 ft | 192 kts | 316° |
| 2026-05-08 18:33 | 53.98651 | 9.39431 | 2020 ft | 192 kts | 316° |
| 2026-05-08 18:33 | 53.99561 | 9.37768 | 2031 ft | 193 kts | 316° |
| 2026-05-08 18:33 | 54.00475 | 9.36101 | 2031 ft | 193 kts | 315° |
| 2026-05-08 18:33 | 54.01397 | 9.34434 | 2036 ft | 194 kts | 316° |
| 2026-05-08 18:34 | 54.02325 | 9.32765 | 2035 ft | 194 kts | 316° |
| 2026-05-08 18:34 | 54.03253 | 9.31101 | 2034 ft | 194 kts | 316° |
| 2026-05-08 18:34 | 54.04179 | 9.29439 | 2017 ft | 193 kts | 316° |
| 2026-05-08 18:34 | 54.05100 | 9.27778 | 2012 ft | 193 kts | 316° |
| 2026-05-08 18:35 | 54.06010 | 9.26139 | 2019 ft | 192 kts | 316° |
| 2026-05-08 18:35 | 54.06930 | 9.24481 | 2014 ft | 192 kts | 316° |
| 2026-05-08 18:35 | 54.07850 | 9.22824 | 2017 ft | 192 kts | 316° |
| 2026-05-08 18:35 | 54.08769 | 9.21166 | 2013 ft | 192 kts | 316° |
| 2026-05-08 18:36 | 54.09687 | 9.19512 | 2017 ft | 192 kts | 316° |
| 2026-05-08 18:36 | 54.10597 | 9.17872 | 2017 ft | 192 kts | 316° |
| 2026-05-08 18:36 | 54.11519 | 9.16207 | 2017 ft | 193 kts | 316° |
| 2026-05-08 18:36 | 54.12439 | 9.14545 | 2016 ft | 193 kts | 316° |
| 2026-05-08 18:37 | 54.13360 | 9.12879 | 2016 ft | 193 kts | 316° |
| 2026-05-08 18:37 | 54.14283 | 9.11212 | 2017 ft | 193 kts | 316° |
| 2026-05-08 18:37 | 54.15209 | 9.09543 | 2018 ft | 194 kts | 315° |
| 2026-05-08 18:37 | 54.16127 | 9.07890 | 2014 ft | 194 kts | 316° |
| 2026-05-08 18:38 | 54.17057 | 9.06218 | 2006 ft | 194 kts | 316° |
| 2026-05-08 18:38 | 54.17984 | 9.04546 | 1994 ft | 194 kts | 316° |
| 2026-05-08 18:38 | 54.18910 | 9.02878 | 1984 ft | 193 kts | 316° |
| 2026-05-08 18:38 | 54.19834 | 9.01214 | 1987 ft | 193 kts | 316° |
| 2026-05-08 18:39 | 54.20756 | 8.99553 | 1983 ft | 193 kts | 315° |
| 2026-05-08 18:39 | 54.21681 | 8.97884 | 1972 ft | 192 kts | 316° |
| 2026-05-08 18:39 | 54.22604 | 8.96224 | 1969 ft | 192 kts | 316° |
| 2026-05-08 18:39 | 54.23517 | 8.94583 | 1970 ft | 193 kts | 316° |
| 2026-05-08 18:40 | 54.24444 | 8.92915 | 1972 ft | 194 kts | 316° |
| 2026-05-08 18:40 | 54.25376 | 8.91238 | 1966 ft | 194 kts | 316° |
| 2026-05-08 18:40 | 54.26340 | 8.89628 | 1966 ft | 194 kts | 319° |
| 2026-05-08 18:40 | 54.27330 | 8.88062 | 1963 ft | 193 kts | 320° |
| 2026-05-08 18:41 | 54.28331 | 8.86512 | 1967 ft | 193 kts | 320° |
| 2026-05-08 18:41 | 54.29319 | 8.84991 | 1969 ft | 193 kts | 320° |
| 2026-05-08 18:41 | 54.30320 | 8.83457 | 1973 ft | 193 kts | 320° |
| 2026-05-08 18:41 | 54.31323 | 8.81924 | 1973 ft | 193 kts | 321° |
| 2026-05-08 18:42 | 54.32330 | 8.80387 | 1970 ft | 193 kts | 321° |
| 2026-05-08 18:42 | 54.33336 | 8.78850 | 1977 ft | 193 kts | 321° |
| 2026-05-08 18:42 | 54.34340 | 8.77319 | 1984 ft | 193 kts | 321° |
| 2026-05-08 18:42 | 54.35345 | 8.75790 | 1976 ft | 193 kts | 321° |
| 2026-05-08 18:43 | 54.36350 | 8.74260 | 1985 ft | 193 kts | 321° |
| 2026-05-08 18:43 | 54.37356 | 8.72728 | 1990 ft | 193 kts | 320° |
| 2026-05-08 18:43 | 54.38347 | 8.71219 | 1992 ft | 193 kts | 321° |
| 2026-05-08 18:43 | 54.39351 | 8.69688 | 1990 ft | 193 kts | 321° |
| 2026-05-08 18:44 | 54.40357 | 8.68159 | 1993 ft | 193 kts | 321° |
| 2026-05-08 18:44 | 54.41363 | 8.66623 | 1988 ft | 193 kts | 320° |
| 2026-05-08 18:44 | 54.42413 | 8.65198 | 1983 ft | 192 kts | 326° |
| 2026-05-08 18:44 | 54.43486 | 8.63883 | 1982 ft | 192 kts | 327° |
| 2026-05-08 18:45 | 54.44585 | 8.62577 | 1982 ft | 192 kts | 328° |
| 2026-05-08 18:45 | 54.45687 | 8.61276 | 1977 ft | 192 kts | 328° |
| 2026-05-08 18:45 | 54.46791 | 8.59974 | 1974 ft | 193 kts | 329° |
| 2026-05-08 18:45 | 54.47898 | 8.58664 | 1983 ft | 193 kts | 328° |
| 2026-05-08 18:46 | 54.49002 | 8.57354 | 1986 ft | 193 kts | 329° |
| 2026-05-08 18:46 | 54.50108 | 8.56041 | 2000 ft | 193 kts | 328° |
| 2026-05-08 18:46 | 54.51217 | 8.54723 | 1997 ft | 194 kts | 329° |
| 2026-05-08 18:46 | 54.52325 | 8.53403 | 1999 ft | 193 kts | 328° |
| 2026-05-08 18:47 | 54.53430 | 8.52090 | 1994 ft | 193 kts | 329° |
| 2026-05-08 18:47 | 54.54548 | 8.50805 | 1984 ft | 193 kts | 330° |
| 2026-05-08 18:47 | 54.55667 | 8.49546 | 1980 ft | 192 kts | 330° |
| 2026-05-08 18:47 | 54.56790 | 8.48301 | 1995 ft | 192 kts | 330° |
| 2026-05-08 18:48 | 54.57919 | 8.47064 | 2017 ft | 192 kts | 330° |
| 2026-05-08 18:48 | 54.59053 | 8.45822 | 2015 ft | 193 kts | 330° |
| 2026-05-08 18:48 | 54.60188 | 8.44577 | 2014 ft | 193 kts | 330° |
| 2026-05-08 18:48 | 54.61323 | 8.43331 | 2015 ft | 194 kts | 331° |
| 2026-05-08 18:49 | 54.62459 | 8.42077 | 2019 ft | 194 kts | 330° |
| 2026-05-08 18:49 | 54.63593 | 8.40815 | 2017 ft | 194 kts | 330° |
| 2026-05-08 18:49 | 54.64729 | 8.39542 | 2021 ft | 195 kts | 330° |
| 2026-05-08 18:49 | 54.65850 | 8.38287 | 2017 ft | 194 kts | 330° |
| 2026-05-08 18:50 | 54.66987 | 8.37023 | 2014 ft | 194 kts | 330° |
| 2026-05-08 18:50 | 54.68123 | 8.35767 | 2014 ft | 194 kts | 330° |
| 2026-05-08 18:50 | 54.69298 | 8.34734 | 2006 ft | 184 kts | 347° |
| 2026-05-08 18:50 | 54.70122 | 8.34342 | 2010 ft | 180 kts | 350° |
| 2026-05-08 18:51 | 54.71697 | 8.33687 | 1882 ft | 167 kts | 352° |
| 2026-05-08 18:51 | 54.72795 | 8.33252 | 1669 ft | 156 kts | 354° |
| 2026-05-08 18:51 | 54.73843 | 8.32964 | 1504 ft | 146 kts | 358° |
| 2026-05-08 18:51 | 54.74793 | 8.32690 | 1553 ft | 132 kts | 358° |
| 2026-05-08 18:52 | 54.75380 | 8.32519 | 1562 ft | 127 kts | 358° |
| 2026-05-08 18:52 | 54.76237 | 8.32285 | 1577 ft | 123 kts | 358° |
| 2026-05-08 18:52 | 54.77046 | 8.32065 | 1580 ft | 120 kts | 358° |
| 2026-05-08 18:52 | 54.78122 | 8.31763 | 1582 ft | 115 kts | 358° |
| 2026-05-08 18:53 | 54.78650 | 8.31612 | 1584 ft | 112 kts | 358° |
| 2026-05-08 18:53 | 54.79408 | 8.31386 | 1580 ft | 109 kts | 358° |
| 2026-05-08 18:53 | 54.80144 | 8.31141 | 1582 ft | 107 kts | 358° |
| 2026-05-08 18:53 | 54.80872 | 8.30893 | 1585 ft | 106 kts | 358° |
| 2026-05-08 18:54 | 54.81607 | 8.30531 | 1472 ft | 117 kts | 351° |
| 2026-05-08 18:54 | 54.82386 | 8.30098 | 1351 ft | 116 kts | 349° |
| 2026-05-08 18:54 | 54.83110 | 8.29655 | 1371 ft | 106 kts | 349° |
| 2026-05-08 18:54 | 54.83786 | 8.29227 | 1376 ft | 101 kts | 348° |
| 2026-05-08 18:55 | 54.85074 | 8.28405 | 1378 ft | 101 kts | 348° |
| 2026-05-08 18:55 | 54.85747 | 8.27985 | 1383 ft | 104 kts | 348° |
| 2026-05-08 18:55 | 54.86442 | 8.27791 | 1366 ft | 103 kts | 3° |
| 2026-05-08 18:56 | 54.87161 | 8.27687 | 1309 ft | 103 kts | 5° |
| 2026-05-08 18:56 | 54.87897 | 8.27667 | 1149 ft | 106 kts | 14° |
| 2026-05-08 18:56 | 54.88591 | 8.27952 | 1004 ft | 100 kts | 30° |
| 2026-05-08 18:56 | 54.89192 | 8.28497 | 840 ft | 96 kts | 43° |
| 2026-05-08 18:57 | 54.89683 | 8.29223 | 670 ft | 88 kts | 52° |
| 2026-05-08 18:57 | 54.90020 | 8.30030 | 569 ft | 79 kts | 62° |
| 2026-05-08 18:57 | 54.90280 | 8.30842 | 406 ft | 76 kts | 69° |
| 2026-05-08 18:57 | 54.90527 | 8.31663 | 260 ft | 77 kts | 68° |
| 2026-05-08 18:58 | 54.90790 | 8.32455 | 163 ft | 76 kts | 65° |
| 2026-05-08 18:58 | 54.91054 | 8.33251 | 37 ft | 75 kts | 66° |
| 2026-05-08 18:58 | 54.91275 | 8.33941 | 32 ft | 54 kts | 59° |
| 2026-05-08 18:58 | 54.91403 | 8.34344 | 34 ft | 28 kts | 60° |
| 2026-05-08 18:59 | 54.91504 | 8.34608 | 32 ft | 26 kts | 57° |
| 2026-05-08 18:59 | 54.91607 | 8.34903 | 34 ft | 25 kts | 65° |
| 2026-05-08 18:59 | 54.91675 | 8.35019 | 35 ft | 12 kts | 256° |
| 2026-05-08 18:59 | 54.91562 | 8.34785 | 31 ft | 40 kts | 239° |
| 2026-05-08 19:00 | 54.91414 | 8.34328 | 34 ft | 44 kts | 238° |
| 2026-05-08 19:00 | 54.91256 | 8.33862 | 29 ft | 45 kts | 243° |
| 2026-05-08 19:00 | 54.91107 | 8.33506 | 21 ft | 36 kts | 240° |
| 2026-05-08 19:00 | 54.91018 | 8.33146 | 25 ft | 22 kts | 245° |
| 2026-05-08 19:01 | 54.91059 | 8.32911 | 25 ft | 20 kts | 313° |
| 2026-05-08 19:01 | 54.91158 | 8.32719 | 21 ft | 16 kts | 309° |
| 2026-05-08 19:01 | 54.91225 | 8.32604 | 21 ft | 7 kts | 329° |
| 2026-05-08 19:01 | 54.91240 | 8.32533 | 21 ft | 0 kts | 239° |
| 2026-05-08 19:02 | 54.91239 | 8.32529 | 21 ft | 0 kts | 239° |